sensor_id;sensor_type;location;lat;lon;timestamp;pressure;altitude;pressure_sealevel;temperature;humidity
76973;BME280;65907;53.640;10.050;2024-02-23T00:02:06;97748.41;;;20.72;42.74
76973;BME280;65907;53.640;10.050;2024-02-23T00:04:31;97754.44;;;20.73;42.63
76973;BME280;65907;53.640;10.050;2024-02-23T00:06:56;97753.22;;;20.75;42.55
76973;BME280;65907;53.640;10.050;2024-02-23T00:09:22;97760.25;;;20.75;42.65
76973;BME280;65907;53.640;10.050;2024-02-23T00:11:47;97780.31;;;20.74;42.32
76973;BME280;65907;53.640;10.050;2024-02-23T00:14:15;97785.75;;;20.73;42.45
76973;BME280;65907;53.640;10.050;2024-02-23T00:16:41;97778.53;;;20.75;42.41
76973;BME280;65907;53.640;10.050;2024-02-23T00:19:10;97780.53;;;20.73;42.60
76973;BME280;65907;53.640;10.050;2024-02-23T00:21:38;97779.72;;;20.72;42.44
76973;BME280;65907;53.640;10.050;2024-02-23T00:24:05;97795.59;;;20.71;42.36
76973;BME280;65907;53.640;10.050;2024-02-23T00:26:33;97780.94;;;20.70;42.22
76973;BME280;65907;53.640;10.050;2024-02-23T00:28:58;97794.78;;;20.70;42.25
76973;BME280;65907;53.640;10.050;2024-02-23T00:31:24;97797.22;;;20.72;42.02
76973;BME280;65907;53.640;10.050;2024-02-23T00:33:49;97799.41;;;20.68;42.26
76973;BME280;65907;53.640;10.050;2024-02-23T00:36:14;97812.47;;;20.68;41.76
76973;BME280;65907;53.640;10.050;2024-02-23T00:38:39;97821.13;;;20.69;41.83
76973;BME280;65907;53.640;10.050;2024-02-23T00:41:05;97816.69;;;20.69;41.68
76973;BME280;65907;53.640;10.050;2024-02-23T00:43:37;97813.06;;;20.70;41.74
76973;BME280;65907;53.640;10.050;2024-02-23T00:46:05;97820.91;;;20.70;41.99
76973;BME280;65907;53.640;10.050;2024-02-23T00:48:32;97820.09;;;20.70;41.61
76973;BME280;65907;53.640;10.050;2024-02-23T00:51:03;97815.06;;;20.68;41.52
76973;BME280;65907;53.640;10.050;2024-02-23T00:53:30;97807.44;;;20.67;41.82
76973;BME280;65907;53.640;10.050;2024-02-23T00:55:55;97824.50;;;20.69;41.62
76973;BME280;65907;53.640;10.050;2024-02-23T00:58:21;97820.09;;;20.70;41.43
76973;BME280;65907;53.640;10.050;2024-02-23T01:00:46;97827.34;;;20.68;41.44
76973;BME280;65907;53.640;10.050;2024-02-23T01:03:11;97836.97;;;20.67;41.70
76973;BME280;65907;53.640;10.050;2024-02-23T01:05:36;97834.16;;;20.69;41.52
76973;BME280;65907;53.640;10.050;2024-02-23T01:08:03;97851.84;;;20.67;41.68
76973;BME280;65907;53.640;10.050;2024-02-23T01:10:31;97851.03;;;20.66;41.56
76973;BME280;65907;53.640;10.050;2024-02-23T01:12:56;97860.47;;;20.67;41.54
76973;BME280;65907;53.640;10.050;2024-02-23T01:15:24;97869.50;;;20.65;41.42
76973;BME280;65907;53.640;10.050;2024-02-23T01:17:51;97887.16;;;20.62;41.35
76973;BME280;65907;53.640;10.050;2024-02-23T01:20:16;97902.63;;;20.64;41.25
76973;BME280;65907;53.640;10.050;2024-02-23T01:22:42;97903.63;;;20.63;41.30
76973;BME280;65907;53.640;10.050;2024-02-23T01:25:07;97897.81;;;20.61;41.26
76973;BME280;65907;53.640;10.050;2024-02-23T01:27:32;97930.13;;;20.60;41.01
76973;BME280;65907;53.640;10.050;2024-02-23T01:29:57;97931.34;;;20.64;41.09
76973;BME280;65907;53.640;10.050;2024-02-23T01:32:23;97959.06;;;20.65;41.14
76973;BME280;65907;53.640;10.050;2024-02-23T01:34:51;97959.47;;;20.62;40.83
76973;BME280;65907;53.640;10.050;2024-02-23T01:37:17;97992.56;;;20.61;40.93
76973;BME280;65907;53.640;10.050;2024-02-23T01:39:42;98007.44;;;20.61;40.92
76973;BME280;65907;53.640;10.050;2024-02-23T01:42:08;98025.72;;;20.61;41.17
76973;BME280;65907;53.640;10.050;2024-02-23T01:44:33;98046.63;;;20.61;41.04
76973;BME280;65907;53.640;10.050;2024-02-23T01:46:58;98051.00;;;20.60;40.72
76973;BME280;65907;53.640;10.050;2024-02-23T01:49:23;98056.06;;;20.62;41.03
76973;BME280;65907;53.640;10.050;2024-02-23T01:51:54;98074.91;;;20.57;40.98
76973;BME280;65907;53.640;10.050;2024-02-23T01:54:20;98088.56;;;20.59;40.80
76973;BME280;65907;53.640;10.050;2024-02-23T01:56:45;98098.81;;;20.61;40.75
76973;BME280;65907;53.640;10.050;2024-02-23T01:59:10;98114.50;;;20.61;40.75
76973;BME280;65907;53.640;10.050;2024-02-23T02:01:36;98132.78;;;20.61;40.56
76973;BME280;65907;53.640;10.050;2024-02-23T02:04:03;98150.22;;;20.60;40.75
76973;BME280;65907;53.640;10.050;2024-02-23T02:06:29;98153.22;;;20.57;40.64
76973;BME280;65907;53.640;10.050;2024-02-23T02:08:54;98143.38;;;20.59;40.66
76973;BME280;65907;53.640;10.050;2024-02-23T02:11:19;98171.31;;;20.59;40.68
76973;BME280;65907;53.640;10.050;2024-02-23T02:13:47;98177.31;;;20.59;40.34
76973;BME280;65907;53.640;10.050;2024-02-23T02:16:13;98194.00;;;20.58;40.79
76973;BME280;65907;53.640;10.050;2024-02-23T02:18:38;98211.09;;;20.61;40.55
76973;BME280;65907;53.640;10.050;2024-02-23T02:21:03;98207.88;;;20.59;40.45
76973;BME280;65907;53.640;10.050;2024-02-23T02:23:31;98212.25;;;20.58;40.51
76973;BME280;65907;53.640;10.050;2024-02-23T02:25:57;98210.47;;;20.59;40.63
76973;BME280;65907;53.640;10.050;2024-02-23T02:28:23;98212.25;;;20.58;40.55
76973;BME280;65907;53.640;10.050;2024-02-23T02:30:49;98213.09;;;20.59;40.74
76973;BME280;65907;53.640;10.050;2024-02-23T02:33:14;98223.91;;;20.56;40.46
76973;BME280;65907;53.640;10.050;2024-02-23T02:35:39;98219.47;;;20.56;40.33
76973;BME280;65907;53.640;10.050;2024-02-23T02:38:05;98229.75;;;20.58;40.45
76973;BME280;65907;53.640;10.050;2024-02-23T02:40:30;98234.97;;;20.58;40.46
76973;BME280;65907;53.640;10.050;2024-02-23T02:42:56;98239.56;;;20.56;40.49
76973;BME280;65907;53.640;10.050;2024-02-23T02:45:22;98251.00;;;20.55;40.48
76973;BME280;65907;53.640;10.050;2024-02-23T02:47:47;98253.63;;;20.55;40.31
76973;BME280;65907;53.640;10.050;2024-02-23T02:50:12;98245.13;;;20.53;40.24
76973;BME280;65907;53.640;10.050;2024-02-23T02:52:37;98278.28;;;20.52;40.43
76973;BME280;65907;53.640;10.050;2024-02-23T02:55:03;98270.28;;;20.54;40.59
76973;BME280;65907;53.640;10.050;2024-02-23T02:57:28;98278.13;;;20.54;40.33
76973;BME280;65907;53.640;10.050;2024-02-23T02:59:54;98275.84;;;20.51;40.37
76973;BME280;65907;53.640;10.050;2024-02-23T03:02:20;98275.66;;;20.52;40.47
76973;BME280;65907;53.640;10.050;2024-02-23T03:04:51;98280.06;;;20.52;40.48
76973;BME280;65907;53.640;10.050;2024-02-23T03:07:16;98282.25;;;20.48;40.22
76973;BME280;65907;53.640;10.050;2024-02-23T03:09:41;98276.66;;;20.51;40.54
76973;BME280;65907;53.640;10.050;2024-02-23T03:12:07;98287.91;;;20.52;40.33
76973;BME280;65907;53.640;10.050;2024-02-23T03:14:32;98299.16;;;20.52;40.30
76973;BME280;65907;53.640;10.050;2024-02-23T03:16:58;98283.69;;;20.51;40.20
76973;BME280;65907;53.640;10.050;2024-02-23T03:19:24;98295.72;;;20.52;40.19
76973;BME280;65907;53.640;10.050;2024-02-23T03:21:50;98315.81;;;20.51;40.20
76973;BME280;65907;53.640;10.050;2024-02-23T03:24:15;98318.44;;;20.51;40.03
76973;BME280;65907;53.640;10.050;2024-02-23T03:26:41;98321.03;;;20.51;39.97
76973;BME280;65907;53.640;10.050;2024-02-23T03:29:06;98315.81;;;20.51;40.25
76973;BME280;65907;53.640;10.050;2024-02-23T03:31:31;98324.44;;;20.52;40.27
76973;BME280;65907;53.640;10.050;2024-02-23T03:33:56;98329.88;;;20.50;39.97
76973;BME280;65907;53.640;10.050;2024-02-23T03:36:22;98341.56;;;20.54;40.14
76973;BME280;65907;53.640;10.050;2024-02-23T03:38:47;98340.13;;;20.52;39.96
76973;BME280;65907;53.640;10.050;2024-02-23T03:41:12;98348.78;;;20.52;39.97
76973;BME280;65907;53.640;10.050;2024-02-23T03:43:37;98354.97;;;20.51;39.90
76973;BME280;65907;53.640;10.050;2024-02-23T03:46:03;98352.75;;;20.48;40.00
76973;BME280;65907;53.640;10.050;2024-02-23T03:48:28;98358.59;;;20.50;39.81
76973;BME280;65907;53.640;10.050;2024-02-23T03:50:53;98364.81;;;20.49;39.90
76973;BME280;65907;53.640;10.050;2024-02-23T03:53:19;98369.81;;;20.51;40.00
76973;BME280;65907;53.640;10.050;2024-02-23T03:55:44;98376.88;;;20.50;39.94
76973;BME280;65907;53.640;10.050;2024-02-23T03:58:09;98391.69;;;20.49;39.79
76973;BME280;65907;53.640;10.050;2024-02-23T04:00:35;98391.69;;;20.49;40.08
76973;BME280;65907;53.640;10.050;2024-02-23T04:03:00;98395.50;;;20.47;40.01
76973;BME280;65907;53.640;10.050;2024-02-23T04:05:25;98390.28;;;20.47;40.09
76973;BME280;65907;53.640;10.050;2024-02-23T04:07:50;98395.94;;;20.51;39.88
76973;BME280;65907;53.640;10.050;2024-02-23T04:10:16;98402.34;;;20.48;39.84
76973;BME280;65907;53.640;10.050;2024-02-23T04:12:42;98406.13;;;20.45;39.84
76973;BME280;65907;53.640;10.050;2024-02-23T04:15:09;98398.91;;;20.47;39.83
76973;BME280;65907;53.640;10.050;2024-02-23T04:17:35;98407.72;;;20.46;39.60
76973;BME280;65907;53.640;10.050;2024-02-23T04:20:05;98406.75;;;20.47;39.62
76973;BME280;65907;53.640;10.050;2024-02-23T04:22:31;98416.56;;;20.45;39.92
76973;BME280;65907;53.640;10.050;2024-02-23T04:24:56;98418.00;;;20.48;39.53
76973;BME280;65907;53.640;10.050;2024-02-23T04:27:22;98417.19;;;20.47;39.59
76973;BME280;65907;53.640;10.050;2024-02-23T04:29:47;98423.41;;;20.46;39.75
76973;BME280;65907;53.640;10.050;2024-02-23T04:32:13;98420.78;;;20.46;39.80
76973;BME280;65907;53.640;10.050;2024-02-23T04:34:40;98410.34;;;20.46;39.55
76973;BME280;65907;53.640;10.050;2024-02-23T04:37:06;98415.56;;;20.46;39.62
76973;BME280;65907;53.640;10.050;2024-02-23T04:39:31;98414.78;;;20.46;39.50
76973;BME280;65907;53.640;10.050;2024-02-23T04:41:57;98408.56;;;20.47;39.47
76973;BME280;65907;53.640;10.050;2024-02-23T04:44:22;98409.56;;;20.46;39.67
76973;BME280;65907;53.640;10.050;2024-02-23T04:46:48;98407.09;;;20.44;39.56
76973;BME280;65907;53.640;10.050;2024-02-23T04:49:13;98419.16;;;20.45;39.74
76973;BME280;65907;53.640;10.050;2024-02-23T04:51:38;98422.59;;;20.46;39.51
76973;BME280;65907;53.640;10.050;2024-02-23T04:54:03;98427.00;;;20.45;39.71
76973;BME280;65907;53.640;10.050;2024-02-23T04:56:31;98434.03;;;20.45;39.57
76973;BME280;65907;53.640;10.050;2024-02-23T04:58:58;98440.06;;;20.45;39.78
76973;BME280;65907;53.640;10.050;2024-02-23T05:01:23;98450.31;;;20.47;39.59
76973;BME280;65907;53.640;10.050;2024-02-23T05:03:49;98457.16;;;20.48;39.42
76973;BME280;65907;53.640;10.050;2024-02-23T05:06:14;98453.94;;;20.46;39.56
76973;BME280;65907;53.640;10.050;2024-02-23T05:08:42;98460.31;;;20.43;39.64
76973;BME280;65907;53.640;10.050;2024-02-23T05:11:07;98467.16;;;20.44;39.60
76973;BME280;65907;53.640;10.050;2024-02-23T05:13:32;98471.75;;;20.42;39.52
76973;BME280;65907;53.640;10.050;2024-02-23T05:15:57;98467.97;;;20.45;39.29
76973;BME280;65907;53.640;10.050;2024-02-23T05:18:23;98480.41;;;20.43;39.49
76973;BME280;65907;53.640;10.050;2024-02-23T05:20:48;98473.56;;;20.42;39.35
76973;BME280;65907;53.640;10.050;2024-02-23T05:23:15;98488.03;;;20.44;39.34
76973;BME280;65907;53.640;10.050;2024-02-23T05:25:41;98475.34;;;20.41;39.63
76973;BME280;65907;53.640;10.050;2024-02-23T05:28:07;98486.41;;;20.43;39.62
76973;BME280;65907;53.640;10.050;2024-02-23T05:30:32;98487.22;;;20.44;39.31
76973;BME280;65907;53.640;10.050;2024-02-23T05:32:57;98504.69;;;20.43;39.45
76973;BME280;65907;53.640;10.050;2024-02-23T05:35:28;98500.44;;;20.42;39.19
76973;BME280;65907;53.640;10.050;2024-02-23T05:37:53;98496.84;;;20.43;39.24
76973;BME280;65907;53.640;10.050;2024-02-23T05:40:18;98509.09;;;20.43;39.31
76973;BME280;65907;53.640;10.050;2024-02-23T05:42:43;98508.28;;;20.42;39.14
76973;BME280;65907;53.640;10.050;2024-02-23T05:45:10;98515.13;;;20.43;39.40
76973;BME280;65907;53.640;10.050;2024-02-23T05:47:36;98513.50;;;20.42;39.34
76973;BME280;65907;53.640;10.050;2024-02-23T05:50:02;98518.09;;;20.40;39.34
76973;BME280;65907;53.640;10.050;2024-02-23T05:52:28;98519.88;;;20.40;39.00
76973;BME280;65907;53.640;10.050;2024-02-23T05:54:55;98519.72;;;20.41;39.15
76973;BME280;65907;53.640;10.050;2024-02-23T05:57:21;98533.75;;;20.40;38.96
76973;BME280;65907;53.640;10.050;2024-02-23T05:59:46;98519.88;;;20.40;39.29
76973;BME280;65907;53.640;10.050;2024-02-23T06:02:11;98517.63;;;20.37;39.36
76973;BME280;65907;53.640;10.050;2024-02-23T06:04:37;98520.72;;;20.40;39.31
76973;BME280;65907;53.640;10.050;2024-02-23T06:07:02;98535.38;;;20.41;39.46
76973;BME280;65907;53.640;10.050;2024-02-23T06:09:29;98519.72;;;20.41;39.51
76973;BME280;65907;53.640;10.050;2024-02-23T06:11:57;98533.75;;;20.40;39.21
76973;BME280;65907;53.640;10.050;2024-02-23T06:14:22;98540.59;;;20.41;39.16
76973;BME280;65907;53.640;10.050;2024-02-23T06:16:48;98546.44;;;20.43;39.31
76973;BME280;65907;53.640;10.050;2024-02-23T06:19:14;98560.50;;;20.42;39.63
76973;BME280;65907;53.640;10.050;2024-02-23T06:21:39;98555.09;;;20.44;39.14
76973;BME280;65907;53.640;10.050;2024-02-23T06:24:06;98560.31;;;20.44;39.21
76973;BME280;65907;53.640;10.050;2024-02-23T06:26:33;98564.72;;;20.43;39.34
76973;BME280;65907;53.640;10.050;2024-02-23T06:28:58;98559.69;;;20.42;39.61
76973;BME280;65907;53.640;10.050;2024-02-23T06:31:36;98572.56;;;20.43;39.52
76973;BME280;65907;53.640;10.050;2024-02-23T06:34:01;98566.34;;;20.44;39.32
76973;BME280;65907;53.640;10.050;2024-02-23T06:36:26;98558.88;;;20.41;39.20
76973;BME280;65907;53.640;10.050;2024-02-23T06:38:51;98573.53;;;20.42;39.55
76973;BME280;65907;53.640;10.050;2024-02-23T06:41:17;98570.13;;;20.42;39.47
76973;BME280;65907;53.640;10.050;2024-02-23T06:43:42;98576.16;;;20.42;39.27
76973;BME280;65907;53.640;10.050;2024-02-23T06:46:07;98577.97;;;20.42;39.38
76973;BME280;65907;53.640;10.050;2024-02-23T06:48:36;98582.19;;;20.43;39.40
76973;BME280;65907;53.640;10.050;2024-02-23T06:51:04;98583.97;;;20.42;39.47
76973;BME280;65907;53.640;10.050;2024-02-23T06:53:29;98583.97;;;20.42;39.52
76973;BME280;65907;53.640;10.050;2024-02-23T06:55:55;98590.03;;;20.43;39.45
76973;BME280;65907;53.640;10.050;2024-02-23T06:58:20;98594.25;;;20.44;39.52
76973;BME280;65907;53.640;10.050;2024-02-23T07:00:45;98599.00;;;20.40;39.57
76973;BME280;65907;53.640;10.050;2024-02-23T07:03:11;98587.59;;;20.41;39.37
76973;BME280;65907;53.640;10.050;2024-02-23T07:05:36;98597.19;;;20.41;39.16
76973;BME280;65907;53.640;10.050;2024-02-23T07:08:02;98605.03;;;20.41;39.27
76973;BME280;65907;53.640;10.050;2024-02-23T07:10:27;98602.25;;;20.42;39.21
76973;BME280;65907;53.640;10.050;2024-02-23T07:12:52;98608.47;;;20.41;39.22
76973;BME280;65907;53.640;10.050;2024-02-23T07:15:23;98618.91;;;20.41;39.23
76973;BME280;65907;53.640;10.050;2024-02-23T07:17:50;98618.91;;;20.41;39.17
76973;BME280;65907;53.640;10.050;2024-02-23T07:20:15;98632.94;;;20.40;39.19
76973;BME280;65907;53.640;10.050;2024-02-23T07:22:43;98632.94;;;20.40;39.47
76973;BME280;65907;53.640;10.050;2024-02-23T07:25:10;98647.78;;;20.40;39.30
76973;BME280;65907;53.640;10.050;2024-02-23T07:27:35;98642.91;;;20.37;39.31
76973;BME280;65907;53.640;10.050;2024-02-23T07:30:01;98645.53;;;20.37;39.48
76973;BME280;65907;53.640;10.050;2024-02-23T07:32:27;98647.34;;;20.36;39.59
76973;BME280;65907;53.640;10.050;2024-02-23T07:34:54;98646.34;;;20.37;39.22
76973;BME280;65907;53.640;10.050;2024-02-23T07:37:19;98661.81;;;20.39;39.35
76973;BME280;65907;53.640;10.050;2024-02-23T07:39:46;98660.84;;;20.40;39.54
76973;BME280;65907;53.640;10.050;2024-02-23T07:42:14;98667.41;;;20.35;39.03
76973;BME280;65907;53.640;10.050;2024-02-23T07:44:43;98669.84;;;20.37;39.27
76973;BME280;65907;53.640;10.050;2024-02-23T07:47:08;98660.84;;;20.40;39.51
76973;BME280;65907;53.640;10.050;2024-02-23T07:49:34;98680.56;;;20.42;39.55
76973;BME280;65907;53.640;10.050;2024-02-23T07:51:59;98663.75;;;20.45;39.55
76973;BME280;65907;53.640;10.050;2024-02-23T07:54:24;98675.81;;;20.46;39.78
76973;BME280;65907;53.640;10.050;2024-02-23T07:56:50;98670.59;;;20.46;39.99
76973;BME280;65907;53.640;10.050;2024-02-23T07:59:15;98675.81;;;20.46;39.99
76973;BME280;65907;53.640;10.050;2024-02-23T08:01:40;98680.22;;;20.45;40.26
76973;BME280;65907;53.640;10.050;2024-02-23T08:04:09;98682.81;;;20.45;40.12
76973;BME280;65907;53.640;10.050;2024-02-23T08:06:36;98684.44;;;20.46;40.00
76973;BME280;65907;53.640;10.050;2024-02-23T08:09:01;98693.91;;;20.47;40.26
76973;BME280;65907;53.640;10.050;2024-02-23T08:11:27;98712.38;;;20.46;40.03
76973;BME280;65907;53.640;10.050;2024-02-23T08:13:52;98698.13;;;20.48;40.01
76973;BME280;65907;53.640;10.050;2024-02-23T08:16:18;98705.34;;;20.46;40.34
76973;BME280;65907;53.640;10.050;2024-02-23T08:18:43;98708.94;;;20.45;39.87
76973;BME280;65907;53.640;10.050;2024-02-23T08:21:10;98707.78;;;20.48;39.75
76973;BME280;65907;53.640;10.050;2024-02-23T08:23:36;98721.63;;;20.48;40.21
76973;BME280;65907;53.640;10.050;2024-02-23T08:26:01;98725.22;;;20.47;40.08
76973;BME280;65907;53.640;10.050;2024-02-23T08:28:26;98729.03;;;20.45;39.98
76973;BME280;65907;53.640;10.050;2024-02-23T08:30:54;98728.81;;;20.46;40.20
76973;BME280;65907;53.640;10.050;2024-02-23T08:33:19;98741.09;;;20.46;40.39
76973;BME280;65907;53.640;10.050;2024-02-23T08:35:47;98734.06;;;20.46;40.11
76973;BME280;65907;53.640;10.050;2024-02-23T08:38:13;98734.25;;;20.45;40.38
76973;BME280;65907;53.640;10.050;2024-02-23T08:40:38;98735.88;;;20.46;40.38
76973;BME280;65907;53.640;10.050;2024-02-23T08:43:04;98733.25;;;20.46;40.29
76973;BME280;65907;53.640;10.050;2024-02-23T08:45:30;98727.84;;;20.47;40.27
76973;BME280;65907;53.640;10.050;2024-02-23T08:47:56;98727.50;;;20.51;39.65
76973;BME280;65907;53.640;10.050;2024-02-23T08:50:21;98720.13;;;20.54;40.04
76973;BME280;65907;53.640;10.050;2024-02-23T08:52:46;98729.59;;;20.55;39.81
76973;BME280;65907;53.640;10.050;2024-02-23T08:55:11;98738.06;;;20.57;40.12
76973;BME280;65907;53.640;10.050;2024-02-23T08:57:37;98744.09;;;20.58;40.31
76973;BME280;65907;53.640;10.050;2024-02-23T09:00:03;98737.06;;;20.58;39.94
76973;BME280;65907;53.640;10.050;2024-02-23T09:02:29;98745.72;;;20.59;40.03
76973;BME280;65907;53.640;10.050;2024-02-23T09:04:54;98743.13;;;20.59;40.04
76973;BME280;65907;53.640;10.050;2024-02-23T09:07:20;98743.28;;;20.57;40.10
76973;BME280;65907;53.640;10.050;2024-02-23T09:09:46;98748.16;;;20.60;39.91
76973;BME280;65907;53.640;10.050;2024-02-23T09:12:15;98749.13;;;20.59;40.26
76973;BME280;65907;53.640;10.050;2024-02-23T09:14:41;98745.38;;;20.62;40.26
76973;BME280;65907;53.640;10.050;2024-02-23T09:17:06;98754.00;;;20.62;40.06
76973;BME280;65907;53.640;10.050;2024-02-23T09:19:33;98748.16;;;20.60;40.87
76973;BME280;65907;53.640;10.050;2024-02-23T09:21:58;98757.09;;;20.66;40.56
76973;BME280;65907;53.640;10.050;2024-02-23T09:24:25;98757.94;;;20.67;40.51
76973;BME280;65907;53.640;10.050;2024-02-23T09:26:52;98763.16;;;20.67;40.61
76973;BME280;65907;53.640;10.050;2024-02-23T09:29:18;98765.91;;;20.65;41.22
76973;BME280;65907;53.640;10.050;2024-02-23T09:31:43;98764.28;;;20.64;40.96
76973;BME280;65907;53.640;10.050;2024-02-23T09:34:08;98760.84;;;20.63;40.96
76973;BME280;65907;53.640;10.050;2024-02-23T09:36:33;98767.06;;;20.62;40.47
76973;BME280;65907;53.640;10.050;2024-02-23T09:39:01;98770.34;;;20.65;40.43
76973;BME280;65907;53.640;10.050;2024-02-23T09:41:27;98763.03;;;20.60;40.63
76973;BME280;65907;53.640;10.050;2024-02-23T09:43:52;98768.06;;;20.61;40.50
76973;BME280;65907;53.640;10.050;2024-02-23T09:46:22;98765.44;;;20.61;40.79
76973;BME280;65907;53.640;10.050;2024-02-23T09:48:50;98777.69;;;20.61;40.76
76973;BME280;65907;53.640;10.050;2024-02-23T09:51:18;98780.31;;;20.61;40.57
76973;BME280;65907;53.640;10.050;2024-02-23T09:53:43;98790.13;;;20.59;40.60
76973;BME280;65907;53.640;10.050;2024-02-23T09:56:09;98789.13;;;20.60;40.03
76973;BME280;65907;53.640;10.050;2024-02-23T09:58:35;98791.75;;;20.60;39.73
76973;BME280;65907;53.640;10.050;2024-02-23T10:01:01;98791.09;;;20.58;39.68
76973;BME280;65907;53.640;10.050;2024-02-23T10:03:27;98804.97;;;20.58;39.51
76973;BME280;65907;53.640;10.050;2024-02-23T10:05:55;98791.47;;;20.55;39.80
76973;BME280;65907;53.640;10.050;2024-02-23T10:08:21;98792.59;;;20.52;40.24
76973;BME280;65907;53.640;10.050;2024-02-23T10:10:46;98803.69;;;20.54;40.80
76973;BME280;65907;53.640;10.050;2024-02-23T10:13:22;98793.09;;;20.56;40.76
76973;BME280;65907;53.640;10.050;2024-02-23T10:15:49;98786.88;;;20.57;40.78
76973;BME280;65907;53.640;10.050;2024-02-23T10:18:16;98787.66;;;20.57;41.03
76973;BME280;65907;53.640;10.050;2024-02-23T10:20:42;98787.66;;;20.57;41.46
76973;BME280;65907;53.640;10.050;2024-02-23T10:23:08;98785.88;;;20.58;41.27
76973;BME280;65907;53.640;10.050;2024-02-23T10:25:36;98789.28;;;20.58;41.21
76973;BME280;65907;53.640;10.050;2024-02-23T10:28:03;98786.69;;;20.58;41.27
76973;BME280;65907;53.640;10.050;2024-02-23T10:30:28;98796.97;;;20.60;41.20
76973;BME280;65907;53.640;10.050;2024-02-23T10:32:55;98791.75;;;20.60;41.37
76973;BME280;65907;53.640;10.050;2024-02-23T10:35:20;98797.75;;;20.60;41.30
76973;BME280;65907;53.640;10.050;2024-02-23T10:37:48;98795.84;;;20.54;39.03
76973;BME280;65907;53.640;10.050;2024-02-23T10:40:15;98792.13;;;20.48;38.05
76973;BME280;65907;53.640;10.050;2024-02-23T10:42:41;98793.75;;;20.49;38.44
76973;BME280;65907;53.640;10.050;2024-02-23T10:45:09;98802.06;;;20.53;39.41
76973;BME280;65907;53.640;10.050;2024-02-23T10:47:35;98796.50;;;20.56;39.96
76973;BME280;65907;53.640;10.050;2024-02-23T10:50:01;98794.16;;;20.61;40.27
76973;BME280;65907;53.640;10.050;2024-02-23T10:52:29;98798.09;;;20.66;40.07
76973;BME280;65907;53.640;10.050;2024-02-23T10:54:55;98796.28;;;20.66;40.60
76973;BME280;65907;53.640;10.050;2024-02-23T10:57:22;98783.22;;;20.66;40.68
76973;BME280;65907;53.640;10.050;2024-02-23T10:59:47;98784.69;;;20.69;40.42
76973;BME280;65907;53.640;10.050;2024-02-23T11:02:14;98800.34;;;20.69;40.97
76973;BME280;65907;53.640;10.050;2024-02-23T11:04:42;98790.06;;;20.67;41.03
76973;BME280;65907;53.640;10.050;2024-02-23T11:07:13;98798.16;;;20.49;37.01
76973;BME280;65907;53.640;10.050;2024-02-23T11:09:39;98798.91;;;19.86;33.11
76973;BME280;65907;53.640;10.050;2024-02-23T11:12:05;98797.03;;;19.47;32.11
76973;BME280;65907;53.640;10.050;2024-02-23T11:14:30;98795.25;;;19.23;30.92
76973;BME280;65907;53.640;10.050;2024-02-23T11:16:57;98790.19;;;19.04;31.14
76973;BME280;65907;53.640;10.050;2024-02-23T11:19:31;98793.91;;;18.94;30.69
76973;BME280;65907;53.640;10.050;2024-02-23T11:21:56;98782.63;;;18.68;30.26
76973;BME280;65907;53.640;10.050;2024-02-23T11:24:25;98785.25;;;18.68;30.87
76973;BME280;65907;53.640;10.050;2024-02-23T11:26:50;98787.56;;;18.96;31.81
76973;BME280;65907;53.640;10.050;2024-02-23T11:29:20;98784.19;;;19.29;32.36
76973;BME280;65907;53.640;10.050;2024-02-23T11:31:46;98770.94;;;19.55;32.47
76973;BME280;65907;53.640;10.050;2024-02-23T11:34:11;98768.13;;;19.73;32.70
76973;BME280;65907;53.640;10.050;2024-02-23T11:36:38;98774.44;;;19.87;33.19
76973;BME280;65907;53.640;10.050;2024-02-23T11:39:03;98763.50;;;20.00;33.67
76973;BME280;65907;53.640;10.050;2024-02-23T11:41:29;98774.88;;;20.08;33.91
76973;BME280;65907;53.640;10.050;2024-02-23T11:43:56;98776.00;;;20.13;34.04
76973;BME280;65907;53.640;10.050;2024-02-23T11:46:23;98773.53;;;20.20;34.71
76973;BME280;65907;53.640;10.050;2024-02-23T11:48:48;98775.09;;;20.29;34.83
76973;BME280;65907;53.640;10.050;2024-02-23T11:51:21;98763.53;;;20.32;35.08
76973;BME280;65907;53.640;10.050;2024-02-23T11:53:48;98754.72;;;20.33;35.50
76973;BME280;65907;53.640;10.050;2024-02-23T11:56:13;98752.09;;;20.33;35.90
76973;BME280;65907;53.640;10.050;2024-02-23T11:58:39;98763.16;;;20.35;35.98
76973;BME280;65907;53.640;10.050;2024-02-23T12:01:04;98754.34;;;20.36;36.20
76973;BME280;65907;53.640;10.050;2024-02-23T12:03:32;98747.16;;;20.38;36.57
76973;BME280;65907;53.640;10.050;2024-02-23T12:06:00;98740.13;;;20.39;36.61
76973;BME280;65907;53.640;10.050;2024-02-23T12:08:26;98746.97;;;20.40;36.86
76973;BME280;65907;53.640;10.050;2024-02-23T12:10:54;98745.19;;;20.40;37.08
76973;BME280;65907;53.640;10.050;2024-02-23T12:13:19;98740.97;;;20.39;37.03
76973;BME280;65907;53.640;10.050;2024-02-23T12:15:44;98740.97;;;20.39;37.06
76973;BME280;65907;53.640;10.050;2024-02-23T12:18:13;98732.13;;;20.40;37.11
76973;BME280;65907;53.640;10.050;2024-02-23T12:20:38;98745.19;;;20.40;37.27
76973;BME280;65907;53.640;10.050;2024-02-23T12:23:03;98741.59;;;20.41;37.44
76973;BME280;65907;53.640;10.050;2024-02-23T12:25:28;98743.22;;;20.42;37.16
76973;BME280;65907;53.640;10.050;2024-02-23T12:27:54;98744.03;;;20.43;37.61
76973;BME280;65907;53.640;10.050;2024-02-23T12:30:20;98729.19;;;20.43;37.88
76973;BME280;65907;53.640;10.050;2024-02-23T12:32:45;98739.28;;;20.46;37.84
76973;BME280;65907;53.640;10.050;2024-02-23T12:35:14;98733.06;;;20.47;37.90
76973;BME280;65907;53.640;10.050;2024-02-23T12:37:39;98724.44;;;20.47;37.84
76973;BME280;65907;53.640;10.050;2024-02-23T12:40:06;98730.44;;;20.47;38.13
76973;BME280;65907;53.640;10.050;2024-02-23T12:42:31;98735.69;;;20.47;38.03
76973;BME280;65907;53.640;10.050;2024-02-23T12:44:57;98741.88;;;20.46;38.17